sensor_id;sensor_type;location;lat;lon;timestamp;pressure;altitude;pressure_sealevel;temperature
15453;BMP280;7827;53.594;9.938;2023-11-25T00:00:23;36534.06;;;-135.29
15453;BMP280;7827;53.594;9.938;2023-11-25T00:02:54;36487.53;;;-135.29
15453;BMP280;7827;53.594;9.938;2023-11-25T00:05:23;36557.34;;;-135.29
15453;BMP280;7827;53.594;9.938;2023-11-25T00:07:52;36501.09;;;-135.29
15453;BMP280;7827;53.594;9.938;2023-11-25T00:10:20;36553.47;;;-135.29
15453;BMP280;7827;53.594;9.938;2023-11-25T00:12:50;36503.03;;;-135.29
15453;BMP280;7827;53.594;9.938;2023-11-25T00:15:18;36590.31;;;-135.29
15453;BMP280;7827;53.594;9.938;2023-11-25T00:17:49;36448.75;;;-135.29
15453;BMP280;7827;53.594;9.938;2023-11-25T00:20:17;36491.41;;;-135.29
15453;BMP280;7827;53.594;9.938;2023-11-25T00:22:46;36491.41;;;-135.29
15453;BMP280;7827;53.594;9.938;2023-11-25T00:25:15;36489.47;;;-135.29
15453;BMP280;7827;53.594;9.938;2023-11-25T00:27:45;36545.69;;;-135.29
15453;BMP280;7827;53.594;9.938;2023-11-25T00:30:15;36541.81;;;-135.29
15453;BMP280;7827;53.594;9.938;2023-11-25T00:32:43;36433.22;;;-135.29
15453;BMP280;7827;53.594;9.938;2023-11-25T00:35:13;36592.25;;;-135.29
15453;BMP280;7827;53.594;9.938;2023-11-25T00:37:42;36568.97;;;-135.29
15453;BMP280;7827;53.594;9.938;2023-11-25T00:40:11;36640.72;;;-135.29
15453;BMP280;7827;53.594;9.938;2023-11-25T00:42:43;36623.28;;;-135.29
15453;BMP280;7827;53.594;9.938;2023-11-25T00:45:13;36570.91;;;-135.29
15453;BMP280;7827;53.594;9.938;2023-11-25T00:47:43;36580.63;;;-135.29
15453;BMP280;7827;53.594;9.938;2023-11-25T00:50:13;36479.78;;;-135.29
15453;BMP280;7827;53.594;9.938;2023-11-25T00:52:43;36601.94;;;-135.29
15453;BMP280;7827;53.594;9.938;2023-11-25T00:55:12;36504.97;;;-135.29
15453;BMP280;7827;53.594;9.938;2023-11-25T00:57:41;36638.78;;;-135.29
15453;BMP280;7827;53.594;9.938;2023-11-25T01:00:12;36648.50;;;-135.29
15453;BMP280;7827;53.594;9.938;2023-11-25T01:02:44;36662.06;;;-135.29
15453;BMP280;7827;53.594;9.938;2023-11-25T01:05:14;36536.00;;;-135.29
15453;BMP280;7827;53.594;9.938;2023-11-25T01:07:42;36644.63;;;-135.29
15453;BMP280;7827;53.594;9.938;2023-11-25T01:10:12;36632.97;;;-135.29
15453;BMP280;7827;53.594;9.938;2023-11-25T01:12:40;36565.09;;;-135.29
15453;BMP280;7827;53.594;9.938;2023-11-25T01:15:10;36528.25;;;-135.29
15453;BMP280;7827;53.594;9.938;2023-11-25T01:17:39;36607.75;;;-135.29
15453;BMP280;7827;53.594;9.938;2023-11-25T01:20:09;36541.81;;;-135.29
15453;BMP280;7827;53.594;9.938;2023-11-25T01:22:39;36654.31;;;-135.29
15453;BMP280;7827;53.594;9.938;2023-11-25T01:25:08;36580.63;;;-135.29
15453;BMP280;7827;53.594;9.938;2023-11-25T01:27:37;36510.78;;;-135.29
15453;BMP280;7827;53.594;9.938;2023-11-25T01:30:07;36592.25;;;-135.29
15453;BMP280;7827;53.594;9.938;2023-11-25T01:32:36;36530.19;;;-135.29
15453;BMP280;7827;53.594;9.938;2023-11-25T01:35:05;36584.50;;;-135.29
15453;BMP280;7827;53.594;9.938;2023-11-25T01:37:34;36559.28;;;-135.29
15453;BMP280;7827;53.594;9.938;2023-11-25T01:40:06;36574.78;;;-135.29
15453;BMP280;7827;53.594;9.938;2023-11-25T01:42:38;36572.84;;;-135.29
15453;BMP280;7827;53.594;9.938;2023-11-25T01:45:07;36615.53;;;-135.29
15453;BMP280;7827;53.594;9.938;2023-11-25T01:47:37;36600.00;;;-135.29
15453;BMP280;7827;53.594;9.938;2023-11-25T01:50:07;36598.06;;;-135.29
15453;BMP280;7827;53.594;9.938;2023-11-25T01:52:35;36648.50;;;-135.29
15453;BMP280;7827;53.594;9.938;2023-11-25T01:55:08;36617.47;;;-135.29
15453;BMP280;7827;53.594;9.938;2023-11-25T01:57:37;36582.56;;;-135.29
15453;BMP280;7827;53.594;9.938;2023-11-25T02:00:07;36580.63;;;-135.29
15453;BMP280;7827;53.594;9.938;2023-11-25T02:02:42;36572.84;;;-135.29
15453;BMP280;7827;53.594;9.938;2023-11-25T02:05:11;36586.44;;;-135.29
15453;BMP280;7827;53.594;9.938;2023-11-25T02:07:41;36584.50;;;-135.29
15453;BMP280;7827;53.594;9.938;2023-11-25T02:10:11;36501.09;;;-135.29
15453;BMP280;7827;53.594;9.938;2023-11-25T02:12:39;36503.03;;;-135.29
15453;BMP280;7827;53.594;9.938;2023-11-25T02:15:09;36536.00;;;-135.29
15453;BMP280;7827;53.594;9.938;2023-11-25T02:17:41;36503.03;;;-135.29
15453;BMP280;7827;53.594;9.938;2023-11-25T02:20:10;36493.34;;;-135.29
15453;BMP280;7827;53.594;9.938;2023-11-25T02:22:50;36371.16;;;-135.29
15453;BMP280;7827;53.594;9.938;2023-11-25T02:25:19;36553.47;;;-135.29
15453;BMP280;7827;53.594;9.938;2023-11-25T02:27:50;36475.88;;;-135.29
15453;BMP280;7827;53.594;9.938;2023-11-25T02:30:18;36431.28;;;-135.29
15453;BMP280;7827;53.594;9.938;2023-11-25T02:32:47;36534.06;;;-135.29
15453;BMP280;7827;53.594;9.938;2023-11-25T02:35:17;36619.41;;;-135.29
15453;BMP280;7827;53.594;9.938;2023-11-25T02:37:47;36611.66;;;-135.29
15453;BMP280;7827;53.594;9.938;2023-11-25T02:40:17;36553.47;;;-135.29
15453;BMP280;7827;53.594;9.938;2023-11-25T02:42:46;36468.13;;;-135.29
15453;BMP280;7827;53.594;9.938;2023-11-25T02:45:16;36543.75;;;-135.29
15453;BMP280;7827;53.594;9.938;2023-11-25T02:47:47;36565.09;;;-135.29
15453;BMP280;7827;53.594;9.938;2023-11-25T02:50:18;36429.34;;;-135.29
15453;BMP280;7827;53.594;9.938;2023-11-25T02:52:48;36435.16;;;-135.29
15453;BMP280;7827;53.594;9.938;2023-11-25T02:55:16;36435.16;;;-135.29
15453;BMP280;7827;53.594;9.938;2023-11-25T02:57:45;36392.50;;;-135.29
15453;BMP280;7827;53.594;9.938;2023-11-25T03:00:15;36495.28;;;-135.29
15453;BMP280;7827;53.594;9.938;2023-11-25T03:02:58;36479.78;;;-135.29
15453;BMP280;7827;53.594;9.938;2023-11-25T03:05:36;36561.22;;;-135.29
15453;BMP280;7827;53.594;9.938;2023-11-25T03:08:07;36357.59;;;-135.29
15453;BMP280;7827;53.594;9.938;2023-11-25T03:10:39;36485.59;;;-135.29
15453;BMP280;7827;53.594;9.938;2023-11-25T03:13:10;36429.34;;;-135.29
15453;BMP280;7827;53.594;9.938;2023-11-25T03:15:40;36444.84;;;-135.29
15453;BMP280;7827;53.594;9.938;2023-11-25T03:18:09;36468.13;;;-135.29
15453;BMP280;7827;53.594;9.938;2023-11-25T03:20:39;36491.41;;;-135.29
15453;BMP280;7827;53.594;9.938;2023-11-25T03:23:09;36406.06;;;-135.29
15453;BMP280;7827;53.594;9.938;2023-11-25T03:25:37;36357.59;;;-135.29
15453;BMP280;7827;53.594;9.938;2023-11-25T03:28:06;36497.22;;;-135.29
15453;BMP280;7827;53.594;9.938;2023-11-25T03:30:38;36462.31;;;-135.29
15453;BMP280;7827;53.594;9.938;2023-11-25T03:33:08;36376.97;;;-135.29
15453;BMP280;7827;53.594;9.938;2023-11-25T03:35:37;36390.56;;;-135.29
15453;BMP280;7827;53.594;9.938;2023-11-25T03:38:05;36351.78;;;-135.29
15453;BMP280;7827;53.594;9.938;2023-11-25T03:40:35;36347.91;;;-135.29
15453;BMP280;7827;53.594;9.938;2023-11-25T03:43:04;36314.94;;;-135.29
15453;BMP280;7827;53.594;9.938;2023-11-25T03:45:33;36340.13;;;-135.29
15453;BMP280;7827;53.594;9.938;2023-11-25T03:48:02;36340.13;;;-135.29
15453;BMP280;7827;53.594;9.938;2023-11-25T03:50:31;36433.22;;;-135.29
15453;BMP280;7827;53.594;9.938;2023-11-25T03:52:59;36442.91;;;-135.29
15453;BMP280;7827;53.594;9.938;2023-11-25T03:55:28;36299.41;;;-135.29
15453;BMP280;7827;53.594;9.938;2023-11-25T03:58:00;36439.03;;;-135.29
15453;BMP280;7827;53.594;9.938;2023-11-25T04:00:30;36371.16;;;-135.29
15453;BMP280;7827;53.594;9.938;2023-11-25T04:02:59;36320.75;;;-135.29
15453;BMP280;7827;53.594;9.938;2023-11-25T04:05:27;36289.72;;;-135.29
15453;BMP280;7827;53.594;9.938;2023-11-25T04:07:56;36353.72;;;-135.29
15453;BMP280;7827;53.594;9.938;2023-11-25T04:10:24;36361.47;;;-135.29
15453;BMP280;7827;53.594;9.938;2023-11-25T04:12:54;36289.72;;;-135.29
15453;BMP280;7827;53.594;9.938;2023-11-25T04:15:25;36235.44;;;-135.29
15453;BMP280;7827;53.594;9.938;2023-11-25T04:17:53;36208.28;;;-135.29
15453;BMP280;7827;53.594;9.938;2023-11-25T04:20:22;36291.66;;;-135.29
15453;BMP280;7827;53.594;9.938;2023-11-25T04:22:58;36185.00;;;-135.29
15453;BMP280;7827;53.594;9.938;2023-11-25T04:25:33;36280.03;;;-135.29
15453;BMP280;7827;53.594;9.938;2023-11-25T04:28:02;36345.97;;;-135.29
15453;BMP280;7827;53.594;9.938;2023-11-25T04:30:33;36318.81;;;-135.29
15453;BMP280;7827;53.594;9.938;2023-11-25T04:33:01;36345.97;;;-135.29
15453;BMP280;7827;53.594;9.938;2023-11-25T04:35:30;36262.56;;;-135.29
15453;BMP280;7827;53.594;9.938;2023-11-25T04:37:58;36235.44;;;-135.29
15453;BMP280;7827;53.594;9.938;2023-11-25T04:40:27;36188.88;;;-135.29
15453;BMP280;7827;53.594;9.938;2023-11-25T04:42:55;36268.38;;;-135.29
15453;BMP280;7827;53.594;9.938;2023-11-25T04:45:24;36132.66;;;-135.29
15453;BMP280;7827;53.594;9.938;2023-11-25T04:47:54;36150.09;;;-135.29
15453;BMP280;7827;53.594;9.938;2023-11-25T04:50:22;36326.56;;;-135.29
15453;BMP280;7827;53.594;9.938;2023-11-25T04:52:53;36202.47;;;-135.29
15453;BMP280;7827;53.594;9.938;2023-11-25T04:55:22;36330.44;;;-135.29
15453;BMP280;7827;53.594;9.938;2023-11-25T04:57:54;36250.94;;;-135.29
15453;BMP280;7827;53.594;9.938;2023-11-25T05:00:23;36289.72;;;-135.29
15453;BMP280;7827;53.594;9.938;2023-11-25T05:02:53;36208.28;;;-135.29
15453;BMP280;7827;53.594;9.938;2023-11-25T05:05:22;36260.63;;;-135.29
15453;BMP280;7827;53.594;9.938;2023-11-25T05:07:50;36437.09;;;-135.29
15453;BMP280;7827;53.594;9.938;2023-11-25T05:10:19;36266.44;;;-135.29
15453;BMP280;7827;53.594;9.938;2023-11-25T05:12:48;36297.47;;;-135.29
15453;BMP280;7827;53.594;9.938;2023-11-25T05:15:18;36223.78;;;-135.29
15453;BMP280;7827;53.594;9.938;2023-11-25T05:17:49;36316.88;;;-135.29
15453;BMP280;7827;53.594;9.938;2023-11-25T05:20:19;36324.63;;;-135.29
15453;BMP280;7827;53.594;9.938;2023-11-25T05:22:48;36274.22;;;-135.29
15453;BMP280;7827;53.594;9.938;2023-11-25T05:25:17;36136.53;;;-135.29
15453;BMP280;7827;53.594;9.938;2023-11-25T05:27:45;36303.28;;;-135.29
15453;BMP280;7827;53.594;9.938;2023-11-25T05:30:14;36146.22;;;-135.29
15453;BMP280;7827;53.594;9.938;2023-11-25T05:32:43;36200.53;;;-135.29
15453;BMP280;7827;53.594;9.938;2023-11-25T05:35:13;36190.81;;;-135.29
15453;BMP280;7827;53.594;9.938;2023-11-25T05:37:43;36216.03;;;-135.29
15453;BMP280;7827;53.594;9.938;2023-11-25T05:40:13;36278.09;;;-135.29
15453;BMP280;7827;53.594;9.938;2023-11-25T05:42:43;36293.59;;;-135.29
15453;BMP280;7827;53.594;9.938;2023-11-25T05:45:20;36254.81;;;-135.29
15453;BMP280;7827;53.594;9.938;2023-11-25T05:47:53;36349.84;;;-135.29
15453;BMP280;7827;53.594;9.938;2023-11-25T05:50:22;36264.50;;;-135.29
15453;BMP280;7827;53.594;9.938;2023-11-25T05:52:53;36429.34;;;-135.29
15453;BMP280;7827;53.594;9.938;2023-11-25T05:55:23;36227.66;;;-135.29
15453;BMP280;7827;53.594;9.938;2023-11-25T05:57:53;36144.28;;;-135.29
15453;BMP280;7827;53.594;9.938;2023-11-25T06:00:26;36235.44;;;-135.29
15453;BMP280;7827;53.594;9.938;2023-11-25T06:02:56;36316.88;;;-135.29
15453;BMP280;7827;53.594;9.938;2023-11-25T06:05:26;36202.47;;;-135.29
15453;BMP280;7827;53.594;9.938;2023-11-25T06:07:57;36264.50;;;-135.29
15453;BMP280;7827;53.594;9.938;2023-11-25T06:10:25;36217.97;;;-135.29
15453;BMP280;7827;53.594;9.938;2023-11-25T06:12:54;36266.44;;;-135.29
15453;BMP280;7827;53.594;9.938;2023-11-25T06:15:22;36014.38;;;-135.29
15453;BMP280;7827;53.594;9.938;2023-11-25T06:17:51;36175.31;;;-135.29
15453;BMP280;7827;53.594;9.938;2023-11-25T06:20:20;36068.66;;;-135.29
15453;BMP280;7827;53.594;9.938;2023-11-25T06:22:52;36280.03;;;-135.29
15453;BMP280;7827;53.594;9.938;2023-11-25T06:25:22;36066.72;;;-135.29
15453;BMP280;7827;53.594;9.938;2023-11-25T06:27:51;36249.00;;;-135.29
15453;BMP280;7827;53.594;9.938;2023-11-25T06:30:20;36072.53;;;-135.29
15453;BMP280;7827;53.594;9.938;2023-11-25T06:32:50;36107.44;;;-135.29
15453;BMP280;7827;53.594;9.938;2023-11-25T06:35:18;36148.16;;;-135.29
15453;BMP280;7827;53.594;9.938;2023-11-25T06:37:47;36146.22;;;-135.29
15453;BMP280;7827;53.594;9.938;2023-11-25T06:40:15;36097.75;;;-135.29
15453;BMP280;7827;53.594;9.938;2023-11-25T06:42:45;36076.41;;;-135.29
15453;BMP280;7827;53.594;9.938;2023-11-25T06:45:14;36245.13;;;-135.29
15453;BMP280;7827;53.594;9.938;2023-11-25T06:47:42;36200.53;;;-135.29
15453;BMP280;7827;53.594;9.938;2023-11-25T06:50:11;36216.03;;;-135.29
15453;BMP280;7827;53.594;9.938;2023-11-25T06:52:39;36183.06;;;-135.29
15453;BMP280;7827;53.594;9.938;2023-11-25T06:55:09;36150.09;;;-135.29
15453;BMP280;7827;53.594;9.938;2023-11-25T06:57:38;36204.41;;;-135.29
15453;BMP280;7827;53.594;9.938;2023-11-25T07:00:11;36318.81;;;-135.29
15453;BMP280;7827;53.594;9.938;2023-11-25T07:02:40;36223.78;;;-135.29
15453;BMP280;7827;53.594;9.938;2023-11-25T07:05:09;36280.03;;;-135.29
15453;BMP280;7827;53.594;9.938;2023-11-25T07:07:37;36212.16;;;-135.29
15453;BMP280;7827;53.594;9.938;2023-11-25T07:10:07;36183.06;;;-135.29
15453;BMP280;7827;53.594;9.938;2023-11-25T07:12:38;36301.34;;;-135.29
15453;BMP280;7827;53.594;9.938;2023-11-25T07:15:09;36185.00;;;-135.29
15453;BMP280;7827;53.594;9.938;2023-11-25T07:17:37;36177.25;;;-135.29
15453;BMP280;7827;53.594;9.938;2023-11-25T07:20:07;36167.56;;;-135.29
15453;BMP280;7827;53.594;9.938;2023-11-25T07:22:41;36260.63;;;-135.29
15453;BMP280;7827;53.594;9.938;2023-11-25T07:25:11;36169.50;;;-135.29
15453;BMP280;7827;53.594;9.938;2023-11-25T07:27:41;36359.53;;;-135.29
15453;BMP280;7827;53.594;9.938;2023-11-25T07:30:14;36250.94;;;-135.29
15453;BMP280;7827;53.594;9.938;2023-11-25T07:32:44;36177.25;;;-135.29
15453;BMP280;7827;53.594;9.938;2023-11-25T07:35:12;36115.19;;;-135.29
15453;BMP280;7827;53.594;9.938;2023-11-25T07:37:41;36155.91;;;-135.29
15453;BMP280;7827;53.594;9.938;2023-11-25T07:40:10;36200.53;;;-135.29
15453;BMP280;7827;53.594;9.938;2023-11-25T07:42:44;36237.38;;;-135.29
15453;BMP280;7827;53.594;9.938;2023-11-25T07:45:17;36266.44;;;-135.29
15453;BMP280;7827;53.594;9.938;2023-11-25T07:47:46;36153.97;;;-135.29
15453;BMP280;7827;53.594;9.938;2023-11-25T07:50:15;36159.78;;;-135.29
15453;BMP280;7827;53.594;9.938;2023-11-25T07:52:44;36243.19;;;-135.29
15453;BMP280;7827;53.594;9.938;2023-11-25T07:55:13;36334.31;;;-135.29
15453;BMP280;7827;53.594;9.938;2023-11-25T07:57:41;36138.47;;;-135.29
15453;BMP280;7827;53.594;9.938;2023-11-25T08:00:11;36293.59;;;-135.29
15453;BMP280;7827;53.594;9.938;2023-11-25T08:02:46;36204.41;;;-135.29
15453;BMP280;7827;53.594;9.938;2023-11-25T08:05:15;36235.44;;;-135.29
15453;BMP280;7827;53.594;9.938;2023-11-25T08:07:52;36105.50;;;-135.29
15453;BMP280;7827;53.594;9.938;2023-11-25T08:10:23;36053.16;;;-135.29
15453;BMP280;7827;53.594;9.938;2023-11-25T08:12:52;36070.59;;;-135.29
15453;BMP280;7827;53.594;9.938;2023-11-25T08:15:24;36076.41;;;-135.29
15453;BMP280;7827;53.594;9.938;2023-11-25T08:17:54;36016.31;;;-135.29
15453;BMP280;7827;53.594;9.938;2023-11-25T08:20:23;36049.28;;;-135.29
15453;BMP280;7827;53.594;9.938;2023-11-25T08:22:52;36037.63;;;-135.29
15453;BMP280;7827;53.594;9.938;2023-11-25T08:25:21;36115.19;;;-135.29
15453;BMP280;7827;53.594;9.938;2023-11-25T08:27:50;36000.78;;;-135.29
15453;BMP280;7827;53.594;9.938;2023-11-25T08:30:19;35987.22;;;-135.29
15453;BMP280;7827;53.594;9.938;2023-11-25T08:32:48;36109.38;;;-135.29
15453;BMP280;7827;53.594;9.938;2023-11-25T08:35:18;36049.28;;;-135.29
15453;BMP280;7827;53.594;9.938;2023-11-25T08:37:47;36066.72;;;-135.29
15453;BMP280;7827;53.594;9.938;2023-11-25T08:40:15;36051.22;;;-135.29
15453;BMP280;7827;53.594;9.938;2023-11-25T08:42:45;35923.25;;;-135.29
15453;BMP280;7827;53.594;9.938;2023-11-25T08:45:14;35944.56;;;-135.29
15453;BMP280;7827;53.594;9.938;2023-11-25T08:47:43;35843.75;;;-135.29
15453;BMP280;7827;53.594;9.938;2023-11-25T08:50:12;35971.72;;;-135.29
15453;BMP280;7827;53.594;9.938;2023-11-25T08:52:45;35824.34;;;-135.29
15453;BMP280;7827;53.594;9.938;2023-11-25T08:55:16;35911.59;;;-135.29
15453;BMP280;7827;53.594;9.938;2023-11-25T08:57:47;35911.59;;;-135.29
15453;BMP280;7827;53.594;9.938;2023-11-25T09:00:17;35965.91;;;-135.29
15453;BMP280;7827;53.594;9.938;2023-11-25T09:02:50;35940.69;;;-135.29
15453;BMP280;7827;53.594;9.938;2023-11-25T09:05:20;35812.72;;;-135.29
15453;BMP280;7827;53.594;9.938;2023-11-25T09:07:52;36014.38;;;-135.29
15453;BMP280;7827;53.594;9.938;2023-11-25T09:10:23;35804.97;;;-135.29
15453;BMP280;7827;53.594;9.938;2023-11-25T09:12:53;35839.88;;;-135.29
15453;BMP280;7827;53.594;9.938;2023-11-25T09:15:21;35913.53;;;-135.29
15453;BMP280;7827;53.594;9.938;2023-11-25T09:17:50;35886.41;;;-135.29
15453;BMP280;7827;53.594;9.938;2023-11-25T09:20:20;35845.69;;;-135.29
15453;BMP280;7827;53.594;9.938;2023-11-25T09:22:50;35923.25;;;-135.29
15453;BMP280;7827;53.594;9.938;2023-11-25T09:25:20;35878.66;;;-135.29
15453;BMP280;7827;53.594;9.938;2023-11-25T09:27:49;35810.78;;;-135.29
15453;BMP280;7827;53.594;9.938;2023-11-25T09:30:18;35762.31;;;-135.29
15453;BMP280;7827;53.594;9.938;2023-11-25T09:32:47;35841.81;;;-135.29
15453;BMP280;7827;53.594;9.938;2023-11-25T09:35:16;35882.53;;;-135.29
15453;BMP280;7827;53.594;9.938;2023-11-25T09:37:44;35884.47;;;-135.29
15453;BMP280;7827;53.594;9.938;2023-11-25T09:40:15;35861.19;;;-135.29
15453;BMP280;7827;53.594;9.938;2023-11-25T09:42:47;35971.72;;;-135.29
15453;BMP280;7827;53.594;9.938;2023-11-25T09:45:15;35880.59;;;-135.29
15453;BMP280;7827;53.594;9.938;2023-11-25T09:47:45;35812.72;;;-135.29
15453;BMP280;7827;53.594;9.938;2023-11-25T09:50:13;35847.63;;;-135.29
15453;BMP280;7827;53.594;9.938;2023-11-25T09:52:49;35892.22;;;-135.29
15453;BMP280;7827;53.594;9.938;2023-11-25T09:55:20;35812.72;;;-135.29
15453;BMP280;7827;53.594;9.938;2023-11-25T09:57:58;35659.56;;;-135.29
15453;BMP280;7827;53.594;9.938;2023-11-25T10:00:28;35628.53;;;-135.29
15453;BMP280;7827;53.594;9.938;2023-11-25T10:02:59;35638.22;;;-135.29
15453;BMP280;7827;53.594;9.938;2023-11-25T10:05:29;35669.25;;;-135.29
15453;BMP280;7827;53.594;9.938;2023-11-25T10:08:00;35543.22;;;-135.29
15453;BMP280;7827;53.594;9.938;2023-11-25T10:10:28;35589.75;;;-135.29
15453;BMP280;7827;53.594;9.938;2023-11-25T10:12:58;35772.00;;;-135.29
15453;BMP280;7827;53.594;9.938;2023-11-25T10:15:27;35723.53;;;-135.29
15453;BMP280;7827;53.594;9.938;2023-11-25T10:17:56;35638.22;;;-135.29
15453;BMP280;7827;53.594;9.938;2023-11-25T10:20:25;35533.53;;;-135.29
15453;BMP280;7827;53.594;9.938;2023-11-25T10:22:54;35613.03;;;-135.29
15453;BMP280;7827;53.594;9.938;2023-11-25T10:25:26;35601.41;;;-135.29
15453;BMP280;7827;53.594;9.938;2023-11-25T10:27:57;35640.16;;;-135.29
15453;BMP280;7827;53.594;9.938;2023-11-25T10:30:26;35551.00;;;-135.29
15453;BMP280;7827;53.594;9.938;2023-11-25T10:32:56;35568.44;;;-135.29
15453;BMP280;7827;53.594;9.938;2023-11-25T10:35:28;35624.66;;;-135.29
15453;BMP280;7827;53.594;9.938;2023-11-25T10:37:57;35651.81;;;-135.29
15453;BMP280;7827;53.594;9.938;2023-11-25T10:40:25;35684.75;;;-135.29
15453;BMP280;7827;53.594;9.938;2023-11-25T10:42:54;35688.63;;;-135.29
15453;BMP280;7827;53.594;9.938;2023-11-25T10:45:25;35787.53;;;-135.29
15453;BMP280;7827;53.594;9.938;2023-11-25T10:47:57;35708.03;;;-135.29
15453;BMP280;7827;53.594;9.938;2023-11-25T10:50:26;35642.09;;;-135.29
15453;BMP280;7827;53.594;9.938;2023-11-25T10:52:56;35545.19;;;-135.29
15453;BMP280;7827;53.594;9.938;2023-11-25T10:55:27;35626.59;;;-135.29
15453;BMP280;7827;53.594;9.938;2023-11-25T10:57:56;35642.09;;;-135.29
15453;BMP280;7827;53.594;9.938;2023-11-25T11:00:30;35461.81;;;-135.29
15453;BMP280;7827;53.594;9.938;2023-11-25T11:03:03;35661.50;;;-135.29
15453;BMP280;7827;53.594;9.938;2023-11-25T11:05:44;35576.19;;;-135.29
15453;BMP280;7827;53.594;9.938;2023-11-25T11:08:22;35628.53;;;-135.29
15453;BMP280;7827;53.594;9.938;2023-11-25T11:10:58;35659.56;;;-135.29
15453;BMP280;7827;53.594;9.938;2023-11-25T11:13:33;35665.38;;;-135.29
15453;BMP280;7827;53.594;9.938;2023-11-25T11:16:13;35649.88;;;-135.29
15453;BMP280;7827;53.594;9.938;2023-11-25T11:18:45;35614.97;;;-135.29
15453;BMP280;7827;53.594;9.938;2023-11-25T11:21:15;35597.53;;;-135.29
15453;BMP280;7827;53.594;9.938;2023-11-25T11:23:43;35483.13;;;-135.29
15453;BMP280;7827;53.594;9.938;2023-11-25T11:26:26;35510.28;;;-135.29
15453;BMP280;7827;53.594;9.938;2023-11-25T11:29:09;35564.56;;;-135.29
15453;BMP280;7827;53.594;9.938;2023-11-25T11:31:59;35591.69;;;-135.29
15453;BMP280;7827;53.594;9.938;2023-11-25T11:34:31;35655.69;;;-135.29
15453;BMP280;7827;53.594;9.938;2023-11-25T11:37:01;35642.09;;;-135.29
15453;BMP280;7827;53.594;9.938;2023-11-25T11:39:38;35519.97;;;-135.29
15453;BMP280;7827;53.594;9.938;2023-11-25T11:42:36;35582.00;;;-135.29
15453;BMP280;7827;53.594;9.938;2023-11-25T11:45:09;35500.59;;;-135.29
15453;BMP280;7827;53.594;9.938;2023-11-25T11:47:50;35576.19;;;-135.29
15453;BMP280;7827;53.594;9.938;2023-11-25T11:50:21;35488.94;;;-135.29
15453;BMP280;7827;53.594;9.938;2023-11-25T11:53:11;35549.06;;;-135.29
15453;BMP280;7827;53.594;9.938;2023-11-25T11:55:49;35589.75;;;-135.29
15453;BMP280;7827;53.594;9.938;2023-11-25T11:58:21;35560.69;;;-135.29
15453;BMP280;7827;53.594;9.938;2023-11-25T12:00:54;35616.91;;;-135.29
15453;BMP280;7827;53.594;9.938;2023-11-25T12:03:36;35545.19;;;-135.29
15453;BMP280;7827;53.594;9.938;2023-11-25T12:06:06;35659.56;;;-135.29
15453;BMP280;7827;53.594;9.938;2023-11-25T12:08:36;35473.44;;;-135.29
15453;BMP280;7827;53.594;9.938;2023-11-25T12:11:04;35599.47;;;-135.29
15453;BMP280;7827;53.594;9.938;2023-11-25T12:13:34;35628.53;;;-135.29
15453;BMP280;7827;53.594;9.938;2023-11-25T12:16:06;35525.78;;;-135.29
15453;BMP280;7827;53.594;9.938;2023-11-25T12:18:37;35556.81;;;-135.29
15453;BMP280;7827;53.594;9.938;2023-11-25T12:21:08;35502.53;;;-135.29
15453;BMP280;7827;53.594;9.938;2023-11-25T12:23:36;35516.09;;;-135.29
15453;BMP280;7827;53.594;9.938;2023-11-25T12:26:21;35485.06;;;-135.29
15453;BMP280;7827;53.594;9.938;2023-11-25T12:28:50;35426.91;;;-135.29
15453;BMP280;7827;53.594;9.938;2023-11-25T12:31:19;35518.03;;;-135.29
15453;BMP280;7827;53.594;9.938;2023-11-25T12:33:49;35634.34;;;-135.29
15453;BMP280;7827;53.594;9.938;2023-11-25T12:36:17;35508.34;;;-135.29
15453;BMP280;7827;53.594;9.938;2023-11-25T12:38:47;35541.28;;;-135.29
15453;BMP280;7827;53.594;9.938;2023-11-25T12:41:16;35504.47;;;-135.29
15453;BMP280;7827;53.594;9.938;2023-11-25T12:44:03;35580.06;;;-135.29
15453;BMP280;7827;53.594;9.938;2023-11-25T12:46:32;35407.53;;;-135.29
15453;BMP280;7827;53.594;9.938;2023-11-25T12:49:21;35537.41;;;-135.29
15453;BMP280;7827;53.594;9.938;2023-11-25T12:51:50;35525.78;;;-135.29
15453;BMP280;7827;53.594;9.938;2023-11-25T12:54:19;35572.31;;;-135.29
15453;BMP280;7827;53.594;9.938;2023-11-25T12:56:49;35452.13;;;-135.29
15453;BMP280;7827;53.594;9.938;2023-11-25T12:59:21;35519.97;;;-135.29
15453;BMP280;7827;53.594;9.938;2023-11-25T13:01:50;35487.00;;;-135.29
15453;BMP280;7827;53.594;9.938;2023-11-25T13:04:20;35564.56;;;-135.29
15453;BMP280;7827;53.594;9.938;2023-11-25T13:06:51;35477.31;;;-135.29
15453;BMP280;7827;53.594;9.938;2023-11-25T13:09:25;35473.44;;;-135.29
15453;BMP280;7827;53.594;9.938;2023-11-25T13:11:55;35454.06;;;-135.29
15453;BMP280;7827;53.594;9.938;2023-11-25T13:14:24;35504.47;;;-135.29
15453;BMP280;7827;53.594;9.938;2023-11-25T13:16:52;35578.13;;;-135.29
15453;BMP280;7827;53.594;9.938;2023-11-25T13:19:23;35611.09;;;-135.29
15453;BMP280;7827;53.594;9.938;2023-11-25T13:21:53;35591.69;;;-135.29
15453;BMP280;7827;53.594;9.938;2023-11-25T13:24:21;35518.03;;;-135.29
15453;BMP280;7827;53.594;9.938;2023-11-25T13:26:49;35638.22;;;-135.29
15453;BMP280;7827;53.594;9.938;2023-11-25T13:29:18;35558.75;;;-135.29
15453;BMP280;7827;53.594;9.938;2023-11-25T13:31:46;35632.41;;;-135.29
15453;BMP280;7827;53.594;9.938;2023-11-25T13:34:14;35618.84;;;-135.29
15453;BMP280;7827;53.594;9.938;2023-11-25T13:36:44;35552.94;;;-135.29
15453;BMP280;7827;53.594;9.938;2023-11-25T13:39:13;35611.09;;;-135.29
15453;BMP280;7827;53.594;9.938;2023-11-25T13:41:46;35680.88;;;-135.29
15453;BMP280;7827;53.594;9.938;2023-11-25T13:44:15;35613.03;;;-135.29
15453;BMP280;7827;53.594;9.938;2023-11-25T13:46:43;35673.13;;;-135.29
15453;BMP280;7827;53.594;9.938;2023-11-25T13:49:11;35698.34;;;-135.29
15453;BMP280;7827;53.594;9.938;2023-11-25T13:51:40;35494.78;;;-135.29
15453;BMP280;7827;53.594;9.938;2023-11-25T13:54:28;35607.22;;;-135.29
15453;BMP280;7827;53.594;9.938;2023-11-25T13:56:56;35564.56;;;-135.29
15453;BMP280;7827;53.594;9.938;2023-11-25T13:59:28;35618.84;;;-135.29
15453;BMP280;7827;53.594;9.938;2023-11-25T14:01:56;35583.94;;;-135.29
15453;BMP280;7827;53.594;9.938;2023-11-25T14:04:26;35611.09;;;-135.29
15453;BMP280;7827;53.594;9.938;2023-11-25T14:06:55;35655.69;;;-135.29
15453;BMP280;7827;53.594;9.938;2023-11-25T14:09:27;35646.00;;;-135.29
15453;BMP280;7827;53.594;9.938;2023-11-25T14:11:56;35673.13;;;-135.29
15453;BMP280;7827;53.594;9.938;2023-11-25T14:14:24;35622.72;;;-135.29